createdAt,value
2023-11-22T00:02:04.341Z,11.47
2023-11-22T00:04:30.878Z,10.83
2023-11-22T00:06:57.387Z,11.00
2023-11-22T00:09:24.376Z,10.07
2023-11-22T00:11:51.097Z,9.93
2023-11-22T00:14:17.804Z,10.73
2023-11-22T00:16:44.446Z,11.00
2023-11-22T00:19:11.005Z,11.30
2023-11-22T00:21:37.617Z,11.90
2023-11-22T00:24:05.531Z,11.60
2023-11-22T00:26:33.589Z,11.03
2023-11-22T00:29:00.879Z,10.67
2023-11-22T00:31:27.532Z,10.93
2023-11-22T00:33:54.127Z,12.47
2023-11-22T00:36:20.981Z,10.77
2023-11-22T00:38:47.505Z,11.47
2023-11-22T00:41:16.126Z,10.87
2023-11-22T00:43:42.728Z,11.73
2023-11-22T00:46:09.334Z,10.90
2023-11-22T00:48:35.865Z,12.57
2023-11-22T00:51:08.781Z,11.90
2023-11-22T00:53:37.368Z,11.43
2023-11-22T00:56:05.102Z,10.43
2023-11-22T00:58:31.658Z,10.30
2023-11-22T01:00:58.689Z,11.73
2023-11-22T01:03:25.299Z,11.47
2023-11-22T01:05:52.017Z,10.93
2023-11-22T01:08:18.609Z,10.90
2023-11-22T01:10:45.147Z,11.80
2023-11-22T01:13:11.720Z,11.37
2023-11-22T01:15:38.372Z,11.30
2023-11-22T01:18:05.074Z,12.37
2023-11-22T01:20:31.646Z,12.37
2023-11-22T01:22:58.258Z,12.37
2023-11-22T01:25:24.835Z,13.00
2023-11-22T01:27:51.330Z,12.73
2023-11-22T01:30:19.663Z,13.33
2023-11-22T01:32:46.302Z,11.53
2023-11-22T01:35:12.929Z,13.30
2023-11-22T01:37:39.454Z,13.53
2023-11-22T01:40:07.384Z,13.47
2023-11-22T01:42:33.967Z,13.47
2023-11-22T01:45:00.453Z,13.47
2023-11-22T01:47:28.239Z,15.47
2023-11-22T01:49:55.382Z,13.53
2023-11-22T01:52:22.629Z,13.23
2023-11-22T01:54:49.203Z,14.73
2023-11-22T01:57:15.707Z,14.40
2023-11-22T01:59:42.294Z,14.27
2023-11-22T02:02:09.406Z,15.10
2023-11-22T02:04:36.360Z,14.93
2023-11-22T02:07:03.151Z,14.70
2023-11-22T02:09:29.656Z,15.63
2023-11-22T02:11:56.236Z,16.77
2023-11-22T02:14:22.778Z,16.87
2023-11-22T02:16:49.325Z,15.03
2023-11-22T02:19:16.409Z,15.83
2023-11-22T02:21:43.104Z,16.57
2023-11-22T02:24:10.372Z,16.43
2023-11-22T02:26:37.872Z,16.07
2023-11-22T02:29:07.876Z,17.10
2023-11-22T02:31:35.284Z,16.33
2023-11-22T02:34:01.838Z,13.30
2023-11-22T02:36:28.492Z,13.67
2023-11-22T02:38:55.457Z,12.27
2023-11-22T02:41:22.053Z,11.70
2023-11-22T02:43:48.644Z,12.40
2023-11-22T02:46:15.283Z,13.90
2023-11-22T02:48:41.847Z,14.33
2023-11-22T02:51:08.365Z,13.57
2023-11-22T02:53:35.114Z,14.50
2023-11-22T02:56:01.957Z,13.50
2023-11-22T02:58:29.555Z,13.03
2023-11-22T03:00:58.418Z,14.63
2023-11-22T03:03:28.753Z,13.70
2023-11-22T03:05:55.828Z,15.40
2023-11-22T03:08:22.950Z,13.77
2023-11-22T03:10:49.485Z,13.73
2023-11-22T03:13:16.002Z,14.33
2023-11-22T03:15:43.729Z,13.97
2023-11-22T03:18:10.560Z,12.73
2023-11-22T03:20:38.772Z,13.57
2023-11-22T03:23:05.965Z,13.47
2023-11-22T03:25:32.530Z,13.07
2023-11-22T03:27:59.036Z,13.20
2023-11-22T03:30:25.672Z,14.07
2023-11-22T03:32:52.275Z,14.80
2023-11-22T03:35:19.002Z,14.50
2023-11-22T03:37:45.578Z,14.33
2023-11-22T03:40:12.561Z,13.60
2023-11-22T03:42:40.020Z,14.57
2023-11-22T03:45:07.059Z,13.90
2023-11-22T03:47:34.602Z,14.57
2023-11-22T03:50:01.419Z,13.00
2023-11-22T03:52:30.991Z,13.87
2023-11-22T03:54:58.622Z,14.63
2023-11-22T03:57:25.156Z,13.63
2023-11-22T03:59:51.867Z,13.80
2023-11-22T04:02:18.672Z,11.97
2023-11-22T04:04:45.888Z,12.40
2023-11-22T04:07:12.393Z,10.80
2023-11-22T04:09:39.189Z,10.40
2023-11-22T04:12:06.021Z,9.33
2023-11-22T04:14:32.669Z,10.30
2023-11-22T04:16:59.728Z,9.47
2023-11-22T04:19:26.631Z,9.93
2023-11-22T04:21:55.542Z,12.13
2023-11-22T04:24:22.558Z,10.80
2023-11-22T04:26:49.608Z,9.80
2023-11-22T04:29:17.894Z,9.07
2023-11-22T04:31:44.622Z,10.77
2023-11-22T04:34:11.165Z,10.97
2023-11-22T04:36:38.409Z,10.97
2023-11-22T04:39:05.708Z,11.67
2023-11-22T04:41:32.377Z,10.50
2023-11-22T04:43:58.942Z,11.70
2023-11-22T04:46:25.482Z,10.40
2023-11-22T04:48:52.757Z,10.87
2023-11-22T04:51:19.488Z,8.97
2023-11-22T04:53:46.035Z,10.17
2023-11-22T04:56:12.598Z,11.03
2023-11-22T04:58:39.178Z,10.17
2023-11-22T05:01:05.958Z,9.97
2023-11-22T05:03:32.571Z,10.77
2023-11-22T05:05:59.140Z,9.97
2023-11-22T05:08:26.698Z,9.37
2023-11-22T05:10:54.557Z,8.50
2023-11-22T05:13:21.433Z,8.63
2023-11-22T05:15:48.305Z,9.07
2023-11-22T05:18:15.114Z,8.03
2023-11-22T05:20:41.758Z,10.27
2023-11-22T05:23:08.368Z,8.50
2023-11-22T05:25:34.916Z,8.13
2023-11-22T05:28:01.581Z,8.50
2023-11-22T05:30:28.596Z,9.70
2023-11-22T05:32:55.286Z,8.83
2023-11-22T05:35:21.896Z,9.50
2023-11-22T05:37:48.880Z,10.57
2023-11-22T05:40:17.268Z,9.47
2023-11-22T05:42:44.197Z,9.70
2023-11-22T05:45:10.827Z,10.60
2023-11-22T05:47:37.493Z,10.67
2023-11-22T05:50:04.538Z,9.33
2023-11-22T05:52:31.117Z,9.57
2023-11-22T05:54:57.780Z,9.30
2023-11-22T05:57:24.348Z,9.50
2023-11-22T05:59:50.976Z,8.57
2023-11-22T06:02:17.886Z,8.97
2023-11-22T06:04:44.831Z,8.97
2023-11-22T06:07:11.479Z,10.13
2023-11-22T06:09:38.007Z,10.87
2023-11-22T06:12:04.629Z,8.80
2023-11-22T06:14:31.268Z,11.00
2023-11-22T06:16:57.896Z,11.40
2023-11-22T06:19:24.499Z,10.60
2023-11-22T06:21:51.034Z,10.17
2023-11-22T06:24:17.607Z,10.50
2023-11-22T06:26:44.812Z,12.13
2023-11-22T06:29:11.572Z,9.67
2023-11-22T06:31:38.158Z,9.10
2023-11-22T06:34:04.736Z,8.87
2023-11-22T06:36:31.234Z,8.77
2023-11-22T06:38:57.828Z,8.50
2023-11-22T06:41:24.368Z,8.93
2023-11-22T06:43:50.933Z,9.83
2023-11-22T06:46:20.494Z,10.33
2023-11-22T06:48:49.688Z,10.57
2023-11-22T06:51:17.033Z,10.97
2023-11-22T06:53:43.709Z,11.00
2023-11-22T06:56:10.278Z,11.20
2023-11-22T06:58:36.876Z,12.07
2023-11-22T07:01:03.515Z,10.93
2023-11-22T07:03:30.183Z,11.77
2023-11-22T07:05:57.176Z,13.13
2023-11-22T07:08:23.746Z,11.33
2023-11-22T07:10:51.925Z,11.27
2023-11-22T07:13:19.653Z,11.20
2023-11-22T07:15:46.153Z,10.23
2023-11-22T07:18:14.281Z,10.77
2023-11-22T07:20:41.017Z,10.10
2023-11-22T07:23:08.164Z,9.57
2023-11-22T07:25:35.227Z,9.43
2023-11-22T07:28:01.847Z,11.57
2023-11-22T07:30:31.862Z,12.60
2023-11-22T07:33:00.638Z,10.70
2023-11-22T07:35:29.701Z,12.00
2023-11-22T07:37:56.534Z,12.47
2023-11-22T07:40:23.666Z,13.30
2023-11-22T07:42:50.563Z,11.67
2023-11-22T07:45:18.389Z,11.97
2023-11-22T07:47:45.555Z,12.53
2023-11-22T07:50:13.137Z,12.97
2023-11-22T07:52:41.556Z,11.50
2023-11-22T07:55:09.392Z,14.10
2023-11-22T07:57:36.211Z,13.13
2023-11-22T08:00:05.996Z,13.87
2023-11-22T08:02:34.506Z,13.83
2023-11-22T08:05:04.638Z,12.27
2023-11-22T08:07:31.421Z,12.80
2023-11-22T08:09:58.092Z,13.27
2023-11-22T08:12:24.636Z,13.57
2023-11-22T08:14:52.793Z,14.00
2023-11-22T08:17:20.788Z,11.83
2023-11-22T08:19:49.323Z,13.23
2023-11-22T08:22:15.858Z,13.17
2023-11-22T08:24:42.496Z,12.93
2023-11-22T08:27:09.183Z,13.30
2023-11-22T08:29:35.729Z,12.73
2023-11-22T08:32:03.554Z,11.93
2023-11-22T08:34:30.167Z,12.90
2023-11-22T08:36:58.674Z,12.17
2023-11-22T08:39:25.340Z,12.90
2023-11-22T08:41:51.945Z,12.30
2023-11-22T08:44:18.604Z,10.93
2023-11-22T08:46:45.233Z,11.67
2023-11-22T08:49:12.788Z,12.63
2023-11-22T08:51:39.359Z,11.50
2023-11-22T08:54:06.050Z,10.73
2023-11-22T08:56:32.596Z,11.20
2023-11-22T08:58:59.202Z,11.97
2023-11-22T09:01:27.103Z,11.37
2023-11-22T09:03:53.792Z,10.73
2023-11-22T09:06:20.416Z,10.53
2023-11-22T09:08:47.606Z,11.17
2023-11-22T09:11:14.513Z,10.40
2023-11-22T09:13:41.219Z,10.67
2023-11-22T09:16:09.637Z,11.20
2023-11-22T09:18:36.390Z,11.10
2023-11-22T09:21:03.522Z,9.93
2023-11-22T09:23:31.246Z,8.67
2023-11-22T09:25:57.998Z,9.53
2023-11-22T09:28:24.580Z,9.60
2023-11-22T09:30:52.178Z,8.40
2023-11-22T09:33:20.008Z,9.17
2023-11-22T09:35:48.661Z,8.30
2023-11-22T09:38:17.530Z,9.13
2023-11-22T09:40:48.672Z,8.10
2023-11-22T09:43:26.041Z,7.83
2023-11-22T09:45:57.637Z,7.70
2023-11-22T09:48:29.630Z,7.63
2023-11-22T09:51:12.062Z,6.87
2023-11-22T09:53:42.189Z,7.97
2023-11-22T09:56:09.092Z,6.67
2023-11-22T09:58:36.003Z,6.13
2023-11-22T10:01:02.764Z,5.93
2023-11-22T10:03:32.570Z,5.60
2023-11-22T10:06:00.357Z,7.07
2023-11-22T10:08:28.616Z,5.80
2023-11-22T10:10:55.577Z,5.63
2023-11-22T10:13:22.374Z,5.10
2023-11-22T10:15:49.634Z,4.77
2023-11-22T10:18:16.257Z,6.37
2023-11-22T10:20:43.170Z,5.13
2023-11-22T10:23:10.313Z,5.23
2023-11-22T10:25:46.579Z,4.73
2023-11-22T10:28:13.905Z,5.60
2023-11-22T10:30:41.672Z,5.70
2023-11-22T10:33:08.367Z,6.30
2023-11-22T10:35:34.974Z,6.97
2023-11-22T10:38:07.826Z,6.43
2023-11-22T10:40:34.616Z,6.93
2023-11-22T10:43:01.127Z,8.23
2023-11-22T10:45:28.463Z,6.00
2023-11-22T10:47:55.666Z,6.03
2023-11-22T10:50:23.285Z,6.23
2023-11-22T10:52:53.654Z,6.13
2023-11-22T10:55:20.192Z,5.47
2023-11-22T10:57:49.343Z,5.43
2023-11-22T11:00:16.396Z,6.07
2023-11-22T11:02:47.301Z,4.93
2023-11-22T11:05:19.349Z,5.03
2023-11-22T11:07:58.248Z,5.23
2023-11-22T11:10:25.570Z,5.93
2023-11-22T11:12:52.671Z,5.00
2023-11-22T11:15:19.513Z,5.90
2023-11-22T11:17:48.258Z,6.67
2023-11-22T11:20:16.720Z,6.20
2023-11-22T11:22:43.258Z,5.37
2023-11-22T11:25:09.796Z,5.23
2023-11-22T11:27:40.022Z,4.90
2023-11-22T11:30:39.346Z,4.07
2023-11-22T11:33:06.089Z,4.20
2023-11-22T11:35:39.873Z,4.03
2023-11-22T11:38:06.636Z,4.93
2023-11-22T11:40:33.354Z,5.10
2023-11-22T11:43:00.361Z,7.13
2023-11-22T11:45:28.202Z,6.30
2023-11-22T11:47:55.406Z,6.83
2023-11-22T11:50:23.062Z,7.00
2023-11-22T11:52:49.673Z,6.77
2023-11-22T11:55:16.438Z,7.00
2023-11-22T11:57:43.199Z,6.87
2023-11-22T12:00:10.819Z,7.37
2023-11-22T12:02:37.489Z,6.90
2023-11-22T12:05:09.978Z,8.10
2023-11-22T12:07:37.797Z,6.53
2023-11-22T12:10:07.725Z,6.90
2023-11-22T12:12:35.302Z,6.13
2023-11-22T12:15:01.941Z,6.73
2023-11-22T12:17:29.224Z,6.90
2023-11-22T12:20:09.659Z,6.57
2023-11-22T12:22:36.242Z,7.17
2023-11-22T12:25:02.857Z,6.97
2023-11-22T12:27:29.724Z,7.67
2023-11-22T12:29:57.053Z,7.87
2023-11-22T12:32:25.186Z,7.77
2023-11-22T12:34:54.195Z,7.80
2023-11-22T12:37:24.553Z,7.03
2023-11-22T12:39:51.241Z,7.57
2023-11-22T12:42:17.858Z,8.37
2023-11-22T12:44:59.782Z,9.33
2023-11-22T12:47:36.490Z,9.37
2023-11-22T12:50:05.311Z,9.13
2023-11-22T12:52:33.955Z,9.57
2023-11-22T12:55:00.550Z,7.80
2023-11-22T12:57:27.106Z,8.63
2023-11-22T12:59:53.640Z,7.47
2023-11-22T13:02:21.101Z,6.67
2023-11-22T13:04:48.009Z,7.23
2023-11-22T13:07:14.635Z,8.37
2023-11-22T13:09:41.139Z,6.70
2023-11-22T13:12:07.909Z,7.27
2023-11-22T13:14:39.358Z,7.97
2023-11-22T13:17:07.995Z,7.50
2023-11-22T13:19:34.777Z,7.50
2023-11-22T13:22:01.310Z,8.63
2023-11-22T13:24:27.961Z,7.20
2023-11-22T13:26:54.886Z,7.23
2023-11-22T13:29:21.455Z,8.37
2023-11-22T13:31:47.969Z,9.73
2023-11-22T13:34:14.519Z,8.90
2023-11-22T13:36:41.085Z,7.73
2023-11-22T13:39:07.629Z,8.23
2023-11-22T13:41:34.196Z,7.10
2023-11-22T13:44:02.459Z,5.93
2023-11-22T13:46:29.191Z,7.13
2023-11-22T13:48:55.791Z,6.70
2023-11-22T13:51:22.314Z,6.07
2023-11-22T13:53:54.397Z,6.37
2023-11-22T13:56:21.672Z,6.00
2023-11-22T13:58:48.213Z,7.13
2023-11-22T14:01:16.569Z,7.80
2023-11-22T14:03:44.059Z,9.10
2023-11-22T14:06:11.077Z,7.57
2023-11-22T14:08:37.712Z,7.20
2023-11-22T14:11:04.717Z,5.57
2023-11-22T14:13:31.305Z,7.87
2023-11-22T14:15:58.060Z,6.70
2023-11-22T14:18:26.185Z,5.37
2023-11-22T14:20:52.786Z,5.50
2023-11-22T14:23:19.353Z,6.13
2023-11-22T14:25:46.679Z,6.63
2023-11-22T14:28:13.210Z,6.77
2023-11-22T14:30:39.892Z,6.43
2023-11-22T14:33:08.819Z,6.93
2023-11-22T14:35:36.769Z,7.47
2023-11-22T14:38:05.193Z,6.47
2023-11-22T14:40:32.632Z,7.47
2023-11-22T14:43:01.546Z,7.33
2023-11-22T14:45:28.439Z,7.93
2023-11-22T14:47:55.190Z,8.10
2023-11-22T14:50:22.708Z,8.03
2023-11-22T14:52:51.492Z,8.30
2023-11-22T14:55:20.031Z,8.63
2023-11-22T14:57:46.687Z,8.13
2023-11-22T15:00:16.131Z,10.07
2023-11-22T15:02:47.913Z,8.73
2023-11-22T15:05:14.717Z,9.43
2023-11-22T15:07:43.252Z,9.37
2023-11-22T15:10:11.000Z,7.63
2023-11-22T15:12:38.012Z,7.40
2023-11-22T15:15:04.752Z,7.90
2023-11-22T15:17:31.993Z,8.80
2023-11-22T15:19:58.553Z,9.73
2023-11-22T15:22:25.118Z,8.87
2023-11-22T15:24:51.643Z,9.47
2023-11-22T15:27:18.132Z,10.63
2023-11-22T15:29:44.798Z,11.97
2023-11-22T15:32:11.568Z,11.10
2023-11-22T15:34:39.008Z,9.27
2023-11-22T15:37:05.537Z,10.70
2023-11-22T15:39:32.246Z,10.50
2023-11-22T15:41:58.808Z,9.57
2023-11-22T15:44:25.374Z,10.30
2023-11-22T15:46:52.031Z,10.30
2023-11-22T15:49:18.806Z,10.03
2023-11-22T15:51:45.423Z,9.40
2023-11-22T15:54:12.616Z,9.33
2023-11-22T15:56:39.167Z,8.77
2023-11-22T15:59:05.840Z,9.50
2023-11-22T16:01:32.607Z,10.43
2023-11-22T16:03:59.302Z,9.83
2023-11-22T16:06:27.741Z,11.93
2023-11-22T16:08:54.307Z,11.03
2023-11-22T16:11:20.974Z,10.73
2023-11-22T16:13:49.028Z,10.37
2023-11-22T16:16:15.710Z,10.30
2023-11-22T16:18:42.430Z,9.27
2023-11-22T16:21:09.577Z,9.50
2023-11-22T16:23:36.405Z,11.77
2023-11-22T16:26:05.833Z,10.83
2023-11-22T16:28:33.275Z,9.70
2023-11-22T16:31:00.509Z,10.23
2023-11-22T16:33:27.159Z,14.47
2023-11-22T16:35:53.817Z,14.83
2023-11-22T16:38:21.038Z,12.10
2023-11-22T16:40:52.156Z,12.30
2023-11-22T16:43:19.484Z,12.00
2023-11-22T16:45:50.602Z,12.20
2023-11-22T16:48:18.102Z,12.30
2023-11-22T16:50:44.924Z,13.30
2023-11-22T16:53:17.041Z,13.17
2023-11-22T16:55:44.236Z,13.53
2023-11-22T16:58:10.756Z,12.67
2023-11-22T17:00:37.588Z,11.67
2023-11-22T17:03:04.380Z,11.83
2023-11-22T17:05:31.021Z,13.37
2023-11-22T17:08:01.371Z,13.23
2023-11-22T17:10:45.288Z,12.83
2023-11-22T17:13:15.342Z,13.57
2023-11-22T17:15:42.704Z,13.43
2023-11-22T17:18:09.943Z,14.87
2023-11-22T17:20:36.989Z,18.80
2023-11-22T17:23:03.834Z,22.07
2023-11-22T17:25:30.409Z,22.47
2023-11-22T17:27:57.108Z,21.23
2023-11-22T17:30:25.833Z,19.53
2023-11-22T17:32:53.041Z,19.00
2023-11-22T17:35:20.077Z,16.83
2023-11-22T17:37:47.926Z,17.27
2023-11-22T17:40:15.334Z,16.50
2023-11-22T17:42:41.882Z,17.33
2023-11-22T17:45:08.980Z,16.47
2023-11-22T17:47:39.013Z,15.67
2023-11-22T17:50:06.301Z,13.60
2023-11-22T17:52:35.878Z,15.17
2023-11-22T17:55:05.104Z,15.73
2023-11-22T17:57:31.817Z,14.63
2023-11-22T17:59:58.356Z,14.03
2023-11-22T18:02:25.109Z,15.27
2023-11-22T18:04:51.889Z,14.60
2023-11-22T18:07:21.090Z,14.07
2023-11-22T18:09:49.526Z,14.40
2023-11-22T18:12:16.860Z,16.93
2023-11-22T18:14:45.878Z,15.00
2023-11-22T18:17:12.965Z,13.87
2023-11-22T18:19:39.685Z,13.70
2023-11-22T18:22:06.361Z,13.47
2023-11-22T18:24:34.031Z,17.90
2023-11-22T18:27:00.951Z,15.63
2023-11-22T18:29:28.722Z,16.70
2023-11-22T18:32:00.423Z,16.37
2023-11-22T18:34:33.837Z,15.23
2023-11-22T18:37:03.734Z,14.57
2023-11-22T18:39:31.899Z,13.87
2023-11-22T18:41:58.525Z,11.67
2023-11-22T18:44:25.507Z,11.60
2023-11-22T18:46:52.108Z,11.27
2023-11-22T18:49:21.333Z,11.80
2023-11-22T18:51:48.404Z,11.47
2023-11-22T18:54:15.046Z,12.07
2023-11-22T18:56:45.428Z,10.63
2023-11-22T18:59:12.145Z,11.37
2023-11-22T19:01:38.851Z,11.80
2023-11-22T19:04:05.915Z,10.70
2023-11-22T19:06:32.438Z,9.53
2023-11-22T19:08:59.232Z,9.30
2023-11-22T19:11:25.928Z,10.43
2023-11-22T19:13:55.036Z,10.97
2023-11-22T19:16:24.269Z,9.27
2023-11-22T19:18:52.228Z,9.37
2023-11-22T19:21:22.487Z,8.70
2023-11-22T19:23:50.304Z,8.20
2023-11-22T19:26:26.088Z,8.23
2023-11-22T19:28:52.804Z,7.87
2023-11-22T19:31:21.416Z,8.73
2023-11-22T19:33:48.193Z,8.27
2023-11-22T19:36:22.206Z,8.53
2023-11-22T19:38:49.811Z,9.20
2023-11-22T19:41:17.021Z,9.80
2023-11-22T19:43:43.605Z,10.27
2023-11-22T19:46:10.337Z,12.47
2023-11-22T19:48:37.247Z,10.60
2023-11-22T19:51:06.751Z,9.73
2023-11-22T19:53:37.391Z,10.40
2023-11-22T19:56:05.689Z,12.13
2023-11-22T19:58:32.344Z,12.77
2023-11-22T20:01:01.867Z,11.97
2023-11-22T20:03:29.728Z,14.33
2023-11-22T20:05:56.489Z,14.40
2023-11-22T20:08:23.204Z,12.97
2023-11-22T20:10:49.855Z,12.90
2023-11-22T20:13:17.670Z,12.77
2023-11-22T20:15:44.324Z,12.70
2023-11-22T20:18:10.954Z,15.53
2023-11-22T20:20:37.614Z,13.37
2023-11-22T20:23:05.295Z,13.07
2023-11-22T20:25:32.149Z,12.20
2023-11-22T20:27:58.820Z,14.97
2023-11-22T20:30:25.339Z,16.03
2023-11-22T20:32:51.958Z,14.67
2023-11-22T20:35:18.556Z,14.83
2023-11-22T20:37:45.186Z,12.60
2023-11-22T20:40:11.924Z,12.07
2023-11-22T20:42:38.591Z,13.67
2023-11-22T20:45:05.681Z,12.40
2023-11-22T20:47:32.886Z,13.20
2023-11-22T20:49:59.466Z,13.60
2023-11-22T20:52:26.373Z,13.37
2023-11-22T20:54:53.193Z,15.43
2023-11-22T20:57:19.936Z,15.83
2023-11-22T20:59:46.719Z,14.80
2023-11-22T21:02:13.472Z,16.03
2023-11-22T21:04:40.400Z,15.63
2023-11-22T21:07:06.911Z,15.90
2023-11-22T21:09:33.584Z,13.77
2023-11-22T21:12:00.347Z,15.43
2023-11-22T21:14:26.909Z,15.47
2023-11-22T21:16:54.866Z,15.40
2023-11-22T21:19:21.577Z,13.73
2023-11-22T21:21:48.575Z,14.60
2023-11-22T21:24:15.339Z,15.17
2023-11-22T21:26:42.430Z,14.13
2023-11-22T21:29:09.115Z,15.53
2023-11-22T21:31:35.856Z,15.63
2023-11-22T21:34:02.536Z,14.70
2023-11-22T21:36:29.149Z,16.57
2023-11-22T21:38:55.888Z,15.10
2023-11-22T21:41:23.993Z,16.70
2023-11-22T21:43:53.242Z,16.90
2023-11-22T21:46:20.029Z,15.37
2023-11-22T21:48:46.885Z,16.93
2023-11-22T21:51:14.069Z,14.67
2023-11-22T21:53:40.975Z,15.83
2023-11-22T21:56:08.100Z,17.30
2023-11-22T21:58:35.974Z,16.87
2023-11-22T22:01:02.667Z,17.80
2023-11-22T22:03:29.333Z,16.50
2023-11-22T22:05:56.110Z,16.63
2023-11-22T22:08:22.819Z,16.47
2023-11-22T22:10:49.439Z,16.83
2023-11-22T22:13:15.968Z,15.43
2023-11-22T22:15:42.843Z,14.83
2023-11-22T22:18:09.504Z,14.07
2023-11-22T22:20:43.362Z,14.50
2023-11-22T22:23:18.440Z,14.60
2023-11-22T22:25:45.067Z,15.30
2023-11-22T22:28:11.761Z,15.43
2023-11-22T22:30:39.099Z,15.53
2023-11-22T22:33:05.859Z,13.67
2023-11-22T22:35:32.529Z,14.10
2023-11-22T22:37:59.200Z,14.73
2023-11-22T22:40:25.931Z,15.90
2023-11-22T22:42:52.535Z,14.73
2023-11-22T22:45:19.094Z,15.67
2023-11-22T22:47:46.391Z,14.90
2023-11-22T22:50:13.253Z,15.23
2023-11-22T22:52:40.143Z,15.90
2023-11-22T22:55:08.404Z,16.23
2023-11-22T22:57:34.994Z,16.37
2023-11-22T23:00:01.638Z,17.70
2023-11-22T23:02:28.549Z,18.23
2023-11-22T23:04:55.103Z,17.23
2023-11-22T23:07:21.967Z,18.83
2023-11-22T23:09:48.571Z,18.50
2023-11-22T23:12:15.210Z,19.00
2023-11-22T23:14:41.960Z,20.50
2023-11-22T23:17:08.525Z,20.17
2023-11-22T23:19:36.332Z,19.63
2023-11-22T23:22:07.293Z,18.87
2023-11-22T23:24:34.228Z,20.70
2023-11-22T23:27:06.053Z,20.63
2023-11-22T23:29:34.021Z,21.63
2023-11-22T23:32:00.944Z,22.03
2023-11-22T23:34:27.810Z,20.47
2023-11-22T23:36:55.069Z,21.37
2023-11-22T23:39:22.364Z,21.40
2023-11-22T23:41:50.399Z,19.20
2023-11-22T23:44:17.258Z,20.87
2023-11-22T23:46:44.218Z,20.63
2023-11-22T23:49:10.917Z,20.60
2023-11-22T23:51:37.408Z,19.60
2023-11-22T23:54:03.975Z,20.93
2023-11-22T23:56:30.679Z,20.13
2023-11-22T23:58:57.416Z,19.23
